South Bay — WDD9901 — position and weather

sailwx.info

Track history (hours):
 
Tides and Currents Weather Stations Pressure Air Temp Water Temp Dewpoint Dewpoint Depression Visibility Wind Speed Wind Dir Waves Ship Positions

South Bay

Owner: Great Lakes Dredge & Dock Company, LLC., Oak Brook, IL. More information available from US FCC via Universal Licensing System and Coast Guard Vessel Documentation Center.

Last reported at 2017-Dec-12 20:38 UTC. Time now 2017-Dec-15 10:13 UTC.
Position N 39°46' W 074°07'.

MMSI: 367317830.

Date/timePositionNaut miles runAvg speedWind from/ knotsBaromVisibWave heightAir tempDewpointWater temp
2017-Dec-12 20:38N 39°46' W 074°07'0 1.4
2017-Dec-12 20:30N 39°46' W 074°07'0 0.1
2017-Dec-12 20:00N 39°46' W 074°07'0 0.0
2017-Dec-12 13:59N 39°46' W 074°07'2 3.3
2017-Dec-12 13:31N 39°47' W 074°08'0 0.7
2017-Dec-12 13:00N 39°46' W 074°09'2 3.2
2017-Dec-12 12:28N 39°46' W 074°07'0 0.0
2017-Dec-12 12:00N 39°46' W 074°07'0 0.0
2017-Dec-12 11:30N 39°46' W 074°07'0 0.0
2017-Dec-12 10:57N 39°46' W 074°07'0 0.0
2017-Dec-12 10:27N 39°46' W 074°07'0 0.0
2017-Dec-12 09:58N 39°46' W 074°07'0 0.0
2017-Dec-12 09:22N 39°46' W 074°07'0 0.0
2017-Dec-12 08:59N 39°46' W 074°07'0 0.0
2017-Dec-12 08:29N 39°46' W 074°07'0 0.0
2017-Dec-12 07:57N 39°46' W 074°07'0 0.0
2017-Dec-12 07:27N 39°46' W 074°07'0 0.0
2017-Dec-12 05:53N 39°46' W 074°07'0 0.0
2017-Dec-12 05:26N 39°46' W 074°07'0 0.0
2017-Dec-12 04:54N 39°46' W 074°07'0 0.0
2017-Dec-12 02:40N 39°46' W 074°07'0 0.0
2017-Dec-12 02:23N 39°46' W 074°07'0 0.0
2017-Dec-12 02:00N 39°46' W 074°07'0 0.0
2017-Dec-12 01:30N 39°46' W 074°07'0 0.0
2017-Dec-12 01:00N 39°46' W 074°07'0 0.0
2017-Dec-12 00:29N 39°46' W 074°07'0 0.0
2017-Dec-12 00:00N 39°46' W 074°07'0 0.0
2017-Dec-11 23:30N 39°46' W 074°07'0 0.0
2017-Dec-11 23:00N 39°46' W 074°07'0 0.0
2017-Dec-11 22:29N 39°46' W 074°07'0 0.0
2017-Dec-11 22:00N 39°46' W 074°07'0 0.0
2017-Dec-11 21:28N 39°46' W 074°07'0 0.2
2017-Dec-11 21:00N 39°46' W 074°07'2 3.5
2017-Dec-11 20:30N 39°46' W 074°09'0 0.9
2017-Dec-11 19:59N 39°46' W 074°09'0 0.3
2017-Dec-11 19:30N 39°46' W 074°09'0 0.5
2017-Dec-11 19:00N 39°46' W 074°10'2 3.5
2017-Dec-11 18:30N 39°45' W 074°12'0 0.5
2017-Dec-11 18:00N 39°45' W 074°11'1 1.3
2017-Dec-11 17:30N 39°45' W 074°12'1 1.3
2017-Dec-11 16:59N 39°45' W 074°11'3 6.9
2017-Dec-11 16:30N 39°46' W 074°07'0 0.1
2017-Dec-11 13:18N 39°46' W 074°07'0 0.2
2017-Dec-11 12:55N 39°46' W 074°07'0 0.0
2017-Dec-10 21:11N 39°46' W 074°07'0 0.0
2017-Dec-10 21:00N 39°46' W 074°07'0 0.0
2017-Dec-10 20:30N 39°46' W 074°07'0 0.8
2017-Dec-10 20:00N 39°46' W 074°07'0 0.3
2017-Dec-10 19:29N 39°46' W 074°07'1 1.4
2017-Dec-10 19:00N 39°46' W 074°07'0 0.1
2017-Dec-10 18:30N 39°46' W 074°07'1 1.7
2017-Dec-10 17:59N 39°46' W 074°07'0 0.0
2017-Dec-10 17:30N 39°46' W 074°07'0 0.4
2017-Dec-10 17:00N 39°46' W 074°06'0 0.5
2017-Dec-10 16:30N 39°46' W 074°07'0 0.1
2017-Dec-10 16:00N 39°46' W 074°07'0 0.1
2017-Dec-10 15:29N 39°46' W 074°07'0 0.0
2017-Dec-10 15:00N 39°46' W 074°07'0 0.0
2017-Dec-09 18:36N 39°46' W 074°07'0 0.6
2017-Dec-09 18:30N 39°46' W 074°07'2 3.3
2017-Dec-09 18:00N 39°46' W 074°09'3 6.0
2017-Dec-09 17:30N 39°45' W 074°12'0 0.2
2017-Dec-09 16:59N 39°45' W 074°12'0 0.4
2017-Dec-09 16:30N 39°45' W 074°12'0 0.3
2017-Dec-09 16:00N 39°45' W 074°12'0 0.3
2017-Dec-09 15:31N 39°45' W 074°11'0 0.3
2017-Dec-09 15:00N 39°45' W 074°11'2 3.3
2017-Dec-09 14:30N 39°46' W 074°09'2 3.9
2017-Dec-09 14:00N 39°46' W 074°07'0 0.1
2017-Dec-09 13:30N 39°46' W 074°07'0 0.1
2017-Dec-09 13:00N 39°46' W 074°07'0 0.0
2017-Dec-08 23:21N 39°46' W 074°07'0 0.3
2017-Dec-08 23:01N 39°46' W 074°07'0 0.0
2017-Dec-08 22:30N 39°46' W 074°07'0 0.2
2017-Dec-08 22:00N 39°46' W 074°07'0 0.0
2017-Dec-08 21:29N 39°46' W 074°07'0 0.0
2017-Dec-08 21:00N 39°46' W 074°07'0 0.0
2017-Dec-08 20:29N 39°46' W 074°07'0 0.2
2017-Dec-08 19:58N 39°46' W 074°07'0 0.0
2017-Dec-08 19:31N 39°46' W 074°07'0 0.0
2017-Dec-08 19:00N 39°46' W 074°07'0 0.0
2017-Dec-08 18:30N 39°46' W 074°07'0 0.0
2017-Dec-08 18:00N 39°46' W 074°07'0 0.1
2017-Dec-08 15:56N 39°46' W 074°07'0 0.3
2017-Dec-08 15:29N 39°46' W 074°07'0 0.0
2017-Dec-08 15:00N 39°46' W 074°07'0 0.3
2017-Dec-08 14:30N 39°46' W 074°07'0 0.0
2017-Dec-08 14:00N 39°46' W 074°07'0 0.0
2017-Dec-07 22:22N 39°46' W 074°07'0 1.4
2017-Dec-07 22:00N 39°46' W 074°07'0 0.1
2017-Dec-07 21:30N 39°46' W 074°07'1 2.4
2017-Dec-07 21:00N 39°47' W 074°07'2 3.2
2017-Dec-07 20:30N 39°47' W 074°09'0 0.1
2017-Dec-07 19:59N 39°47' W 074°09'0 0.9
2017-Dec-07 19:29N 39°47' W 074°10'2 4.4
2017-Dec-07 19:00N 39°45' W 074°11'1 1.5
2017-Dec-07 18:30N 39°45' W 074°12'1 1.0
2017-Dec-07 18:00N 39°45' W 074°11'0 0.8
2017-Dec-07 17:30N 39°45' W 074°12'2 4.5
2017-Dec-07 16:59N 39°47' W 074°11'4 7.3
2017-Dec-07 16:30N 39°46' W 074°07'0 0.5
2017-Dec-07 15:57N 39°46' W 074°07'0 0.0
2017-Dec-07 15:30N 39°46' W 074°07'0 0.0
2017-Dec-07 15:00N 39°46' W 074°07'1 1.4
2017-Dec-07 14:30N 39°46' W 074°07'1 2.3
2017-Dec-07 14:00N 39°47' W 074°08'1 2.3
2017-Dec-07 13:30N 39°48' W 074°09'1 2.8
2017-Dec-07 13:00N 39°46' W 074°10'1 2.7
2017-Dec-07 12:30N 39°45' W 074°11'0 0.1
2017-Dec-07 12:00N 39°45' W 074°11'1 0.0
2017-Dec-06 20:55N 39°45' W 074°12'  
2017-Dec-03 17:01N 39°45' W 074°12'0 0.0
2017-Dec-03 17:00N 39°45' W 074°12'2 5.1
2017-Dec-03 16:31N 39°47' W 074°10'3 6.3
2017-Dec-03 16:00N 39°46' W 074°07'0 0.2
2017-Dec-03 15:30N 39°46' W 074°07'1 2.1
2017-Dec-03 15:00N 39°46' W 074°07'1 1.7
2017-Dec-03 14:31N 39°46' W 074°09'3 6.1
2017-Dec-03 14:00N 39°45' W 074°12'0 0.4
2017-Dec-03 13:30N 39°45' W 074°12'0 0.0
2017-Dec-03 13:00N 39°45' W 074°12'0 0.4
2017-Dec-03 12:30N 39°45' W 074°12'  
Track history (hours):
 
Tides and Currents Weather Stations Pressure Air Temp Water Temp Dewpoint Dewpoint Depression Visibility Wind Speed Wind Dir Waves Ship Positions

South Bay

Owner: Great Lakes Dredge & Dock Company, LLC., Oak Brook, IL. More information available from US FCC via Universal Licensing System and Coast Guard Vessel Documentation Center.

Last reported at 2017-Dec-12 20:38 UTC. Time now 2017-Dec-15 10:13 UTC.
Position N 39°46' W 074°07'.

MMSI: 367317830.

Date/timePositionNaut miles runAvg speedWind from/ knotsBaromVisibWave heightAir tempDewpointWater temp
2017-Dec-12 20:38N 39°46' W 074°07'0 1.4
2017-Dec-12 20:30N 39°46' W 074°07'0 0.1
2017-Dec-12 20:00N 39°46' W 074°07'0 0.0
2017-Dec-12 13:59N 39°46' W 074°07'2 3.3
2017-Dec-12 13:31N 39°47' W 074°08'0 0.7
2017-Dec-12 13:00N 39°46' W 074°09'2 3.2
2017-Dec-12 12:28N 39°46' W 074°07'0 0.0
2017-Dec-12 12:00N 39°46' W 074°07'0 0.0
2017-Dec-12 11:30N 39°46' W 074°07'0 0.0
2017-Dec-12 10:57N 39°46' W 074°07'0 0.0
2017-Dec-12 10:27N 39°46' W 074°07'0 0.0
2017-Dec-12 09:58N 39°46' W 074°07'0 0.0
2017-Dec-12 09:22N 39°46' W 074°07'0 0.0
2017-Dec-12 08:59N 39°46' W 074°07'0 0.0
2017-Dec-12 08:29N 39°46' W 074°07'0 0.0
2017-Dec-12 07:57N 39°46' W 074°07'0 0.0
2017-Dec-12 07:27N 39°46' W 074°07'0 0.0
2017-Dec-12 05:53N 39°46' W 074°07'0 0.0
2017-Dec-12 05:26N 39°46' W 074°07'0 0.0
2017-Dec-12 04:54N 39°46' W 074°07'0 0.0
2017-Dec-12 02:40N 39°46' W 074°07'0 0.0
2017-Dec-12 02:23N 39°46' W 074°07'0 0.0
2017-Dec-12 02:00N 39°46' W 074°07'0 0.0
2017-Dec-12 01:30N 39°46' W 074°07'0 0.0
2017-Dec-12 01:00N 39°46' W 074°07'0 0.0
2017-Dec-12 00:29N 39°46' W 074°07'0 0.0
2017-Dec-12 00:00N 39°46' W 074°07'0 0.0
2017-Dec-11 23:30N 39°46' W 074°07'0 0.0
2017-Dec-11 23:00N 39°46' W 074°07'0 0.0
2017-Dec-11 22:29N 39°46' W 074°07'0 0.0
2017-Dec-11 22:00N 39°46' W 074°07'0 0.0
2017-Dec-11 21:28N 39°46' W 074°07'0 0.2
2017-Dec-11 21:00N 39°46' W 074°07'2 3.5
2017-Dec-11 20:30N 39°46' W 074°09'0 0.9
2017-Dec-11 19:59N 39°46' W 074°09'0 0.3
2017-Dec-11 19:30N 39°46' W 074°09'0 0.5
2017-Dec-11 19:00N 39°46' W 074°10'2 3.5
2017-Dec-11 18:30N 39°45' W 074°12'0 0.5
2017-Dec-11 18:00N 39°45' W 074°11'1 1.3
2017-Dec-11 17:30N 39°45' W 074°12'1 1.3
2017-Dec-11 16:59N 39°45' W 074°11'3 6.9
2017-Dec-11 16:30N 39°46' W 074°07'0 0.1
2017-Dec-11 13:18N 39°46' W 074°07'0 0.2
2017-Dec-11 12:55N 39°46' W 074°07'0 0.0
2017-Dec-10 21:11N 39°46' W 074°07'0 0.0
2017-Dec-10 21:00N 39°46' W 074°07'0 0.0
2017-Dec-10 20:30N 39°46' W 074°07'0 0.8
2017-Dec-10 20:00N 39°46' W 074°07'0 0.3
2017-Dec-10 19:29N 39°46' W 074°07'1 1.4
2017-Dec-10 19:00N 39°46' W 074°07'0 0.1
2017-Dec-10 18:30N 39°46' W 074°07'1 1.7
2017-Dec-10 17:59N 39°46' W 074°07'0 0.0
2017-Dec-10 17:30N 39°46' W 074°07'0 0.4
2017-Dec-10 17:00N 39°46' W 074°06'0 0.5
2017-Dec-10 16:30N 39°46' W 074°07'0 0.1
2017-Dec-10 16:00N 39°46' W 074°07'0 0.1
2017-Dec-10 15:29N 39°46' W 074°07'0 0.0
2017-Dec-10 15:00N 39°46' W 074°07'0 0.0
2017-Dec-09 18:36N 39°46' W 074°07'0 0.6
2017-Dec-09 18:30N 39°46' W 074°07'2 3.3
2017-Dec-09 18:00N 39°46' W 074°09'3 6.0
2017-Dec-09 17:30N 39°45' W 074°12'0 0.2
2017-Dec-09 16:59N 39°45' W 074°12'0 0.4
2017-Dec-09 16:30N 39°45' W 074°12'0 0.3
2017-Dec-09 16:00N 39°45' W 074°12'0 0.3
2017-Dec-09 15:31N 39°45' W 074°11'0 0.3
2017-Dec-09 15:00N 39°45' W 074°11'2 3.3
2017-Dec-09 14:30N 39°46' W 074°09'2 3.9
2017-Dec-09 14:00N 39°46' W 074°07'0 0.1
2017-Dec-09 13:30N 39°46' W 074°07'0 0.1
2017-Dec-09 13:00N 39°46' W 074°07'0 0.0
2017-Dec-08 23:21N 39°46' W 074°07'0 0.3
2017-Dec-08 23:01N 39°46' W 074°07'0 0.0
2017-Dec-08 22:30N 39°46' W 074°07'0 0.2
2017-Dec-08 22:00N 39°46' W 074°07'0 0.0
2017-Dec-08 21:29N 39°46' W 074°07'0 0.0
2017-Dec-08 21:00N 39°46' W 074°07'0 0.0
2017-Dec-08 20:29N 39°46' W 074°07'0 0.2
2017-Dec-08 19:58N 39°46' W 074°07'0 0.0
2017-Dec-08 19:31N 39°46' W 074°07'0 0.0
2017-Dec-08 19:00N 39°46' W 074°07'0 0.0
2017-Dec-08 18:30N 39°46' W 074°07'0 0.0
2017-Dec-08 18:00N 39°46' W 074°07'0 0.1
2017-Dec-08 15:56N 39°46' W 074°07'0 0.3
2017-Dec-08 15:29N 39°46' W 074°07'0 0.0
2017-Dec-08 15:00N 39°46' W 074°07'0 0.3
2017-Dec-08 14:30N 39°46' W 074°07'0 0.0
2017-Dec-08 14:00N 39°46' W 074°07'0 0.0
2017-Dec-07 22:22N 39°46' W 074°07'0 1.4
2017-Dec-07 22:00N 39°46' W 074°07'0 0.1
2017-Dec-07 21:30N 39°46' W 074°07'1 2.4
2017-Dec-07 21:00N 39°47' W 074°07'2 3.2
2017-Dec-07 20:30N 39°47' W 074°09'0 0.1
2017-Dec-07 19:59N 39°47' W 074°09'0 0.9
2017-Dec-07 19:29N 39°47' W 074°10'2 4.4
2017-Dec-07 19:00N 39°45' W 074°11'1 1.5
2017-Dec-07 18:30N 39°45' W 074°12'1 1.0
2017-Dec-07 18:00N 39°45' W 074°11'0 0.8
2017-Dec-07 17:30N 39°45' W 074°12'2 4.5
2017-Dec-07 16:59N 39°47' W 074°11'4 7.3
2017-Dec-07 16:30N 39°46' W 074°07'0 0.5
2017-Dec-07 15:57N 39°46' W 074°07'0 0.0
2017-Dec-07 15:30N 39°46' W 074°07'0 0.0
2017-Dec-07 15:00N 39°46' W 074°07'1 1.4
2017-Dec-07 14:30N 39°46' W 074°07'1 2.3
2017-Dec-07 14:00N 39°47' W 074°08'1 2.3
2017-Dec-07 13:30N 39°48' W 074°09'1 2.8
2017-Dec-07 13:00N 39°46' W 074°10'1 2.7
2017-Dec-07 12:30N 39°45' W 074°11'0 0.1
2017-Dec-07 12:00N 39°45' W 074°11'1 0.0
2017-Dec-06 20:55N 39°45' W 074°12'  
2017-Dec-03 17:01N 39°45' W 074°12'0 0.0
2017-Dec-03 17:00N 39°45' W 074°12'2 5.1
2017-Dec-03 16:31N 39°47' W 074°10'3 6.3
2017-Dec-03 16:00N 39°46' W 074°07'0 0.2
2017-Dec-03 15:30N 39°46' W 074°07'1 2.1
2017-Dec-03 15:00N 39°46' W 074°07'1 1.7
2017-Dec-03 14:31N 39°46' W 074°09'3 6.1
2017-Dec-03 14:00N 39°45' W 074°12'0 0.4
2017-Dec-03 13:30N 39°45' W 074°12'0 0.0
2017-Dec-03 13:00N 39°45' W 074°12'0 0.4
2017-Dec-03 12:30N 39°45' W 074°12'  

Dump ship's entire track history